createdAt,value
2018-07-08T00:01:29.444Z,1.27
2018-07-08T00:03:58.295Z,1.07
2018-07-08T00:06:27.128Z,0.80
2018-07-08T00:08:55.950Z,1.97
2018-07-08T00:11:24.784Z,2.93
2018-07-08T00:13:54.291Z,1.20
2018-07-08T00:16:23.127Z,1.00
2018-07-08T00:18:51.958Z,1.47
2018-07-08T00:21:20.867Z,1.00
2018-07-08T00:23:49.730Z,1.37
2018-07-08T00:26:19.580Z,0.90
2018-07-08T00:28:48.189Z,2.60
2018-07-08T00:31:16.949Z,1.10
2018-07-08T00:33:45.827Z,1.33
2018-07-08T00:36:14.698Z,1.23
2018-07-08T00:38:43.928Z,0.87
2018-07-08T00:41:12.545Z,0.90
2018-07-08T00:43:41.306Z,0.87
2018-07-08T00:46:10.231Z,1.67
2018-07-08T00:48:39.096Z,1.40
2018-07-08T00:51:08.300Z,1.30
2018-07-08T00:53:37.986Z,1.13
2018-07-08T00:56:07.506Z,1.30
2018-07-08T00:58:36.419Z,1.27
2018-07-08T01:01:05.244Z,1.10
2018-07-08T01:03:34.094Z,0.80
2018-07-08T01:06:03.014Z,1.13
2018-07-08T01:08:31.851Z,1.20
2018-07-08T01:11:00.766Z,0.90
2018-07-08T01:13:29.606Z,0.90
2018-07-08T01:15:58.536Z,2.10
2018-07-08T01:18:27.378Z,1.57
2018-07-08T01:20:56.489Z,0.80
2018-07-08T01:23:25.334Z,1.47
2018-07-08T01:26:05.570Z,1.30
2018-07-08T01:28:34.478Z,0.90
2018-07-08T01:31:03.326Z,1.20
2018-07-08T01:33:32.307Z,1.67
2018-07-08T01:36:01.205Z,0.70
2018-07-08T01:38:30.042Z,0.87
2018-07-08T01:40:58.664Z,0.70
2018-07-08T01:43:27.757Z,2.93
2018-07-08T01:45:56.668Z,1.60
2018-07-08T01:48:25.606Z,0.60
2018-07-08T01:50:54.677Z,0.97
2018-07-08T01:53:24.130Z,0.93
2018-07-08T01:55:52.741Z,1.80
2018-07-08T01:58:21.450Z,1.07
2018-07-08T02:00:50.285Z,1.77
2018-07-08T02:03:19.484Z,1.10
2018-07-08T02:05:48.196Z,1.00
2018-07-08T02:08:17.060Z,0.83
2018-07-08T02:10:45.926Z,2.80
2018-07-08T02:13:14.834Z,0.90
2018-07-08T02:15:43.690Z,1.40
2018-07-08T02:18:12.534Z,1.03
2018-07-08T02:20:41.387Z,1.20
2018-07-08T02:23:10.234Z,2.63
2018-07-08T02:25:39.077Z,1.00
2018-07-08T02:28:08.583Z,1.00
2018-07-08T02:30:37.200Z,2.03
2018-07-08T02:33:05.906Z,1.20
2018-07-08T02:35:35.610Z,1.57
2018-07-08T02:38:04.506Z,0.90
2018-07-08T02:40:33.374Z,1.30
2018-07-08T02:43:02.279Z,1.63
2018-07-08T02:45:31.118Z,1.23
2018-07-08T02:47:59.755Z,2.00
2018-07-08T02:50:28.486Z,1.17
2018-07-08T02:52:57.097Z,1.33
2018-07-08T02:55:25.826Z,2.10
2018-07-08T02:57:54.670Z,0.60
2018-07-08T03:00:23.549Z,1.00
2018-07-08T03:02:52.490Z,2.27
2018-07-08T03:05:21.337Z,0.80
2018-07-08T03:07:50.245Z,0.97
2018-07-08T03:10:18.833Z,1.03
2018-07-08T03:12:47.595Z,0.97
2018-07-08T03:15:16.436Z,0.90
2018-07-08T03:17:45.266Z,0.90
2018-07-08T03:20:13.885Z,1.10
2018-07-08T03:22:42.586Z,0.70
2018-07-08T03:25:11.438Z,0.97
2018-07-08T03:27:40.283Z,1.60
2018-07-08T03:30:09.111Z,0.57
2018-07-08T03:32:37.940Z,1.53
2018-07-08T03:35:06.863Z,0.83
2018-07-08T03:37:35.718Z,1.37
2018-07-08T03:40:04.753Z,0.70
2018-07-08T03:42:33.595Z,1.13
2018-07-08T03:45:02.447Z,0.93
2018-07-08T03:47:31.302Z,1.33
2018-07-08T03:49:59.950Z,0.97
2018-07-08T03:52:28.684Z,0.80
2018-07-08T03:54:57.282Z,0.90
2018-07-08T03:57:26.011Z,0.70
2018-07-08T03:59:54.876Z,1.47
2018-07-08T04:02:23.742Z,0.93
2018-07-08T04:04:52.561Z,0.70
2018-07-08T04:07:21.422Z,0.50
2018-07-08T04:09:50.273Z,1.43
2018-07-08T04:12:19.097Z,1.70
2018-07-08T04:14:47.954Z,1.03
2018-07-08T04:17:16.840Z,1.03
2018-07-08T04:19:45.719Z,3.70
2018-07-08T04:22:14.539Z,1.40
2018-07-08T04:24:43.374Z,1.17
2018-07-08T04:27:12.222Z,1.00
2018-07-08T04:29:41.066Z,0.93
2018-07-08T04:32:09.915Z,1.07
2018-07-08T04:34:38.759Z,1.20
2018-07-08T04:37:07.566Z,0.77
2018-07-08T04:39:36.640Z,0.70
2018-07-08T04:42:05.478Z,2.13
2018-07-08T04:44:34.322Z,3.43
2018-07-08T04:47:03.339Z,1.03
2018-07-08T04:49:32.163Z,1.17
2018-07-08T04:52:01.066Z,1.07
2018-07-08T04:54:29.894Z,1.00
2018-07-08T04:56:58.738Z,0.80
2018-07-08T04:59:27.642Z,0.73
2018-07-08T05:01:56.534Z,0.80
2018-07-08T05:04:25.373Z,1.07
2018-07-08T05:06:54.222Z,0.80
2018-07-08T05:09:23.078Z,1.07
2018-07-08T05:11:51.907Z,0.73
2018-07-08T05:14:20.758Z,1.17
2018-07-08T05:16:49.582Z,1.10
2018-07-08T05:19:18.413Z,1.20
2018-07-08T05:21:47.237Z,1.00
2018-07-08T05:24:16.498Z,0.73
2018-07-08T05:26:45.380Z,1.10
2018-07-08T05:29:14.210Z,1.10
2018-07-08T05:31:43.023Z,1.07
2018-07-08T05:34:11.918Z,1.57
2018-07-08T05:36:40.754Z,1.90
2018-07-08T05:39:09.606Z,0.70
2018-07-08T05:41:38.536Z,0.97
2018-07-08T05:44:07.471Z,1.93
2018-07-08T05:46:36.484Z,0.53
2018-07-08T05:49:05.418Z,0.90
2018-07-08T05:51:34.440Z,0.83
2018-07-08T05:54:04.119Z,1.50
2018-07-08T05:56:32.942Z,1.17
2018-07-08T05:59:01.808Z,2.00
2018-07-08T06:01:30.638Z,0.63
2018-07-08T06:03:59.265Z,0.57
2018-07-08T06:06:27.987Z,2.07
2018-07-08T06:08:57.133Z,0.77
2018-07-08T06:11:25.966Z,1.57
2018-07-08T06:13:54.838Z,1.53
2018-07-08T06:16:23.694Z,1.97
2018-07-08T06:18:52.555Z,1.43
2018-07-08T06:21:21.437Z,0.80
2018-07-08T06:23:50.282Z,0.80
2018-07-08T06:26:19.313Z,1.20
2018-07-08T06:28:48.185Z,2.03
2018-07-08T06:31:17.057Z,0.90
2018-07-08T06:33:45.959Z,2.00
2018-07-08T06:36:14.797Z,1.20
2018-07-08T06:38:43.699Z,1.90
2018-07-08T06:41:12.550Z,0.70
2018-07-08T06:43:41.429Z,1.30
2018-07-08T06:46:10.354Z,1.67
2018-07-08T06:48:39.222Z,1.42
2018-07-08T06:51:08.078Z,2.23
2018-07-08T06:53:36.938Z,1.60
2018-07-08T06:56:06.087Z,2.63
2018-07-08T06:58:34.918Z,1.20
2018-07-08T07:01:03.760Z,0.97
2018-07-08T07:03:32.638Z,1.20
2018-07-08T07:06:01.520Z,2.90
2018-07-08T07:08:30.346Z,0.80
2018-07-08T07:10:58.969Z,0.93
2018-07-08T07:13:27.676Z,1.43
2018-07-08T07:15:56.549Z,0.70
2018-07-08T07:18:25.441Z,0.80
2018-07-08T07:20:54.294Z,0.77
2018-07-08T07:23:23.142Z,2.40
2018-07-08T07:25:51.969Z,0.70
2018-07-08T07:28:20.874Z,0.50
2018-07-08T07:30:49.714Z,1.53
2018-07-08T07:33:18.540Z,1.03
2018-07-08T07:35:47.595Z,1.50
2018-07-08T07:38:16.416Z,1.00
2018-07-08T07:40:45.238Z,1.20
2018-07-08T07:43:14.092Z,1.80
2018-07-08T07:45:43.198Z,1.93
2018-07-08T07:48:12.030Z,1.23
2018-07-08T07:50:40.857Z,1.83
2018-07-08T07:53:09.691Z,1.90
2018-07-08T07:55:42.505Z,2.56
2018-07-08T07:58:11.363Z,0.67
2018-07-08T08:00:40.186Z,0.83
2018-07-08T08:03:09.022Z,1.07
2018-07-08T08:05:37.890Z,2.00
2018-07-08T08:08:06.706Z,0.67
2018-07-08T08:10:35.584Z,0.93
2018-07-08T08:13:04.472Z,0.73
2018-07-08T08:15:33.058Z,0.50
2018-07-08T08:18:02.032Z,0.50
2018-07-08T08:20:30.923Z,1.90
2018-07-08T08:23:00.101Z,0.53
2018-07-08T08:25:28.708Z,1.30
2018-07-08T08:27:57.786Z,0.73
2018-07-08T08:30:26.627Z,1.43
2018-07-08T08:32:55.478Z,1.03
2018-07-08T08:35:24.430Z,1.13
2018-07-08T08:37:55.294Z,0.57
2018-07-08T08:40:25.580Z,0.70
2018-07-08T08:42:54.818Z,0.47
2018-07-08T08:45:25.158Z,1.60
2018-07-08T08:47:53.983Z,1.10
2018-07-08T08:50:22.832Z,0.83
2018-07-08T08:52:51.662Z,0.93
2018-07-08T08:55:20.525Z,0.60
2018-07-08T08:57:49.354Z,1.37
2018-07-08T09:00:19.192Z,0.63
2018-07-08T09:02:48.036Z,0.50
2018-07-08T09:05:17.144Z,1.50
2018-07-08T09:07:46.000Z,0.50
2018-07-08T09:10:14.824Z,0.50
2018-07-08T09:12:43.658Z,0.97
2018-07-08T09:15:12.508Z,0.63
2018-07-08T09:17:41.338Z,2.13
2018-07-08T09:20:10.226Z,1.07
2018-07-08T09:22:39.065Z,0.70
2018-07-08T09:25:07.957Z,0.50
2018-07-08T09:27:36.781Z,0.63
2018-07-08T09:30:05.651Z,0.60
2018-07-08T09:32:34.272Z,1.50
2018-07-08T09:35:03.246Z,0.87
2018-07-08T09:37:32.102Z,1.97
2018-07-08T09:40:01.015Z,1.47
2018-07-08T09:42:29.890Z,1.07
2018-07-08T09:44:58.733Z,0.77
2018-07-08T09:47:27.590Z,1.93
2018-07-08T09:49:56.454Z,1.07
2018-07-08T09:52:25.310Z,0.57
2018-07-08T09:54:54.358Z,1.43
2018-07-08T09:57:23.215Z,0.80
2018-07-08T09:59:52.343Z,0.60
2018-07-08T10:02:21.207Z,1.57
2018-07-08T10:04:50.052Z,0.47
2018-07-08T10:07:19.046Z,2.20
2018-07-08T10:09:47.889Z,0.60
2018-07-08T10:12:16.722Z,0.47
2018-07-08T10:14:45.550Z,0.60
2018-07-08T10:17:14.379Z,0.47
2018-07-08T10:19:43.335Z,0.97
2018-07-08T10:22:12.043Z,1.17
2018-07-08T10:24:41.366Z,0.80
2018-07-08T10:28:25.900Z,0.83
2018-07-08T10:30:55.091Z,0.73
2018-07-08T10:33:23.983Z,1.20
2018-07-08T10:36:03.641Z,1.07
2018-07-08T10:38:32.839Z,2.33
2018-07-08T10:41:01.712Z,0.60
2018-07-08T10:43:30.597Z,1.63
2018-07-08T10:45:59.391Z,1.87
2018-07-08T10:48:28.234Z,0.60
2018-07-08T10:50:57.062Z,0.90
2018-07-08T10:53:26.712Z,0.47
2018-07-08T10:55:56.026Z,1.20
2018-07-08T10:58:25.010Z,0.50
2018-07-08T11:00:54.258Z,1.03
2018-07-08T11:03:23.086Z,0.50
2018-07-08T11:05:51.922Z,1.13
2018-07-08T11:08:20.758Z,0.60
2018-07-08T11:10:49.675Z,0.70
2018-07-08T11:13:18.538Z,1.80
2018-07-08T11:15:47.474Z,2.00
2018-07-08T11:18:16.387Z,1.60
2018-07-08T11:20:45.357Z,0.40
2018-07-08T11:23:14.243Z,0.80
2018-07-08T11:25:43.354Z,2.10
2018-07-08T11:28:12.069Z,0.50
2018-07-08T11:30:40.958Z,1.53
2018-07-08T11:33:10.334Z,1.23
2018-07-08T11:35:39.202Z,0.93
2018-07-08T11:38:08.609Z,1.67
2018-07-08T11:40:37.474Z,1.20
2018-07-08T11:43:06.342Z,0.63
2018-07-08T11:45:35.230Z,0.97
2018-07-08T11:48:04.112Z,0.43
2018-07-08T11:50:33.638Z,0.80
2018-07-08T11:53:02.583Z,0.63
2018-07-08T11:55:31.462Z,0.80
2018-07-08T11:58:00.282Z,0.80
2018-07-08T12:00:29.258Z,1.47
2018-07-08T12:02:58.537Z,0.80
2018-07-08T12:05:27.149Z,0.60
2018-07-08T12:07:55.698Z,1.10
2018-07-08T12:10:24.451Z,1.20
2018-07-08T12:12:53.364Z,0.50
2018-07-08T12:15:22.581Z,0.40
2018-07-08T12:17:51.262Z,1.37
2018-07-08T12:20:20.026Z,0.50
2018-07-08T12:22:48.821Z,0.47
2018-07-08T12:25:17.650Z,1.40
2018-07-08T12:27:46.483Z,1.37
2018-07-08T12:30:15.367Z,1.03
2018-07-08T12:32:44.222Z,2.73
2018-07-08T12:35:13.083Z,0.77
2018-07-08T12:37:41.926Z,0.50
2018-07-08T12:40:11.366Z,0.50
2018-07-08T12:42:40.204Z,0.87
2018-07-08T12:45:09.059Z,1.40
2018-07-08T12:47:37.947Z,1.27
2018-07-08T12:50:06.782Z,0.50
2018-07-08T12:52:35.668Z,1.60
2018-07-08T12:55:04.541Z,0.70
2018-07-08T12:57:33.427Z,0.83
2018-07-08T13:00:02.259Z,0.83
2018-07-08T13:02:31.270Z,0.90
2018-07-08T13:05:00.166Z,0.97
2018-07-08T13:07:28.854Z,0.57
2018-07-08T13:09:57.761Z,0.50
2018-07-08T13:12:26.628Z,0.73
2018-07-08T13:14:55.260Z,1.10
2018-07-08T13:17:24.302Z,2.27
2018-07-08T13:19:53.227Z,0.70
2018-07-08T13:22:22.075Z,1.07
2018-07-08T13:24:51.748Z,1.00
2018-07-08T13:27:20.598Z,3.80
2018-07-08T13:29:49.554Z,0.77
2018-07-08T13:32:18.526Z,1.00
2018-07-08T13:34:47.222Z,1.90
2018-07-08T13:37:16.166Z,1.60
2018-07-08T13:39:45.006Z,1.10
2018-07-08T13:42:13.874Z,1.30
2018-07-08T13:44:42.749Z,0.50
2018-07-08T13:47:11.610Z,3.13
2018-07-08T13:49:40.480Z,1.30
2018-07-08T13:52:09.346Z,0.63
2018-07-08T13:54:38.222Z,1.40
2018-07-08T13:57:07.113Z,0.33
2018-07-08T13:59:35.994Z,0.80
2018-07-08T14:02:04.582Z,1.60
2018-07-08T14:04:33.299Z,0.80
2018-07-08T14:07:02.150Z,1.80
2018-07-08T14:09:31.574Z,1.93
2018-07-08T14:12:00.466Z,0.97
2018-07-08T14:14:29.336Z,1.60
2018-07-08T14:16:58.330Z,1.63
2018-07-08T14:19:27.208Z,1.03
2018-07-08T14:21:56.037Z,0.93
2018-07-08T14:24:24.875Z,0.70
2018-07-08T14:26:53.740Z,0.70
2018-07-08T14:29:22.616Z,1.10
2018-07-08T14:31:51.566Z,0.77
2018-07-08T14:34:20.452Z,1.27
2018-07-08T14:36:49.290Z,0.80
2018-07-08T14:39:17.901Z,0.90
2018-07-08T14:41:46.619Z,0.73
2018-07-08T14:44:15.486Z,1.13
2018-07-08T14:46:44.323Z,1.07
2018-07-08T14:49:13.158Z,0.77
2018-07-08T14:51:41.982Z,1.43
2018-07-08T14:54:10.846Z,0.60
2018-07-08T14:56:39.726Z,1.27
2018-07-08T14:59:08.620Z,0.70
2018-07-08T15:01:37.455Z,1.00
2018-07-08T15:04:06.307Z,1.27
2018-07-08T15:06:35.146Z,0.67
2018-07-08T15:09:08.846Z,0.70
2018-07-08T15:11:37.760Z,0.67
2018-07-08T15:14:06.590Z,1.30
2018-07-08T15:16:35.450Z,1.37
2018-07-08T15:19:04.536Z,0.93
2018-07-08T15:21:33.374Z,2.67
2018-07-08T15:24:02.226Z,1.40
2018-07-08T15:26:31.063Z,0.67
2018-07-08T15:28:59.891Z,0.50
2018-07-08T15:31:28.746Z,0.80
2018-07-08T15:33:58.046Z,1.30
2018-07-08T15:36:26.920Z,0.93
2018-07-08T15:38:55.729Z,3.07
2018-07-08T16:00:44.741Z,1.17
2018-07-08T16:22:34.200Z,1.50
2018-07-08T16:32:41.445Z,1.00
2018-07-08T16:35:10.302Z,0.70
2018-07-08T16:37:39.187Z,0.63
2018-07-08T16:40:08.043Z,1.43
2018-07-08T16:42:36.884Z,0.87
2018-07-08T16:45:05.743Z,1.50
2018-07-08T16:47:34.611Z,0.80
2018-07-08T16:50:03.485Z,2.77
2018-07-08T16:52:32.355Z,1.83
2018-07-08T16:55:01.202Z,1.50
2018-07-08T16:57:30.067Z,1.30
2018-07-08T16:59:58.918Z,1.33
2018-07-08T17:02:27.803Z,0.67
2018-07-08T17:04:56.606Z,1.03
2018-07-08T17:07:25.458Z,1.70
2018-07-08T17:09:54.309Z,1.27
2018-07-08T17:12:23.154Z,0.63
2018-07-08T17:14:51.764Z,0.97
2018-07-08T17:17:20.478Z,1.10
2018-07-08T17:19:49.314Z,1.90
2018-07-08T17:22:18.503Z,1.70
2018-07-08T17:24:47.141Z,0.83
2018-07-08T17:27:15.922Z,1.93
2018-07-08T17:29:44.769Z,1.80
2018-07-08T17:32:13.606Z,1.00
2018-07-08T17:34:43.244Z,1.47
2018-07-08T17:37:12.106Z,1.33
2018-07-08T17:39:40.999Z,1.00
2018-07-08T17:42:09.819Z,1.47
2018-07-08T17:44:38.649Z,1.27
2018-07-08T17:47:08.134Z,0.80
2018-07-08T17:49:36.759Z,1.07
2018-07-08T17:52:05.506Z,1.33
2018-07-08T17:54:34.330Z,2.27
2018-07-08T17:57:03.169Z,0.87
2018-07-08T17:59:32.462Z,1.33
2018-07-08T18:02:01.136Z,0.77
2018-07-08T18:04:29.962Z,0.70
2018-07-08T18:06:59.020Z,2.67
2018-07-08T18:09:28.196Z,1.33
2018-07-08T18:11:57.502Z,2.13
2018-07-08T18:14:26.379Z,1.20
2018-07-08T18:16:55.235Z,1.33
2018-07-08T18:19:24.047Z,1.53
2018-07-08T18:21:52.887Z,1.20
2018-07-08T18:24:22.086Z,0.80
2018-07-08T18:26:51.002Z,1.10
2018-07-08T18:29:19.774Z,1.10
2018-07-08T18:31:48.653Z,1.23
2018-07-08T18:34:17.483Z,1.70
2018-07-08T18:36:46.310Z,1.20
2018-07-08T18:39:15.187Z,0.70
2018-07-08T18:41:44.019Z,1.03
2018-07-08T18:44:12.894Z,0.70
2018-07-08T18:46:41.780Z,1.60
2018-07-08T18:49:10.654Z,1.40
2018-07-08T18:51:39.446Z,2.30
2018-07-08T18:54:08.074Z,1.00
2018-07-08T18:56:37.018Z,1.50
2018-07-08T18:59:05.819Z,1.63
2018-07-08T19:01:35.189Z,2.00
2018-07-08T19:04:03.934Z,1.10
2018-07-08T19:06:32.762Z,1.90
2018-07-08T19:09:01.638Z,1.03
2018-07-08T19:11:30.491Z,4.97
2018-07-08T19:13:59.570Z,2.90
2018-07-08T19:16:28.410Z,4.33
2018-07-08T19:18:57.394Z,4.90
2018-07-08T19:21:26.230Z,6.20
2018-07-08T19:23:55.083Z,4.10
2018-07-08T19:26:23.975Z,4.23
2018-07-08T19:28:53.107Z,7.53
2018-07-08T19:31:21.727Z,8.67
2018-07-08T19:33:50.465Z,6.20
2018-07-08T19:36:19.294Z,4.73
2018-07-08T19:38:48.147Z,2.40
2018-07-08T19:41:17.592Z,3.33
2018-07-08T19:43:46.445Z,7.03
2018-07-08T19:46:15.106Z,6.57
2018-07-08T19:48:43.818Z,2.90
2018-07-08T19:51:12.431Z,5.00
2018-07-08T19:53:41.139Z,3.77
2018-07-08T19:56:10.020Z,3.50
2018-07-08T19:58:38.861Z,5.23
2018-07-08T20:01:07.545Z,4.30
2018-07-08T20:03:37.815Z,5.77
2018-07-08T20:06:06.722Z,4.97
2018-07-08T20:08:35.570Z,3.07
2018-07-08T20:11:04.422Z,3.83
2018-07-08T20:13:33.271Z,2.33
2018-07-08T20:16:02.183Z,3.63
2018-07-08T20:18:31.150Z,7.30
2018-07-08T20:21:00.101Z,6.57
2018-07-08T20:23:28.874Z,3.40
2018-07-08T20:25:57.760Z,6.53
2018-07-08T20:28:26.616Z,18.57
2018-07-08T20:30:55.482Z,5.80
2018-07-08T20:33:24.335Z,4.63
2018-07-08T20:35:53.278Z,5.53
2018-07-08T20:38:22.083Z,2.83
2018-07-08T20:40:51.020Z,3.53
2018-07-08T20:43:19.902Z,8.77
2018-07-08T20:45:48.841Z,4.37
2018-07-08T20:48:17.598Z,6.97
2018-07-08T20:50:46.542Z,4.43
2018-07-08T20:53:15.563Z,5.73
2018-07-08T20:55:44.542Z,4.30
2018-07-08T21:00:50.615Z,4.60
2018-07-08T21:03:19.550Z,3.67
2018-07-08T21:05:48.706Z,8.03
2018-07-08T21:08:17.588Z,5.17
2018-07-08T21:10:46.582Z,3.60
2018-07-08T21:13:15.555Z,4.17
2018-07-08T21:15:44.478Z,6.17
2018-07-08T21:18:13.788Z,5.97
2018-07-08T21:20:42.817Z,3.37
2018-07-08T21:23:11.694Z,3.17
2018-07-08T21:25:40.570Z,3.83
2018-07-08T21:28:09.494Z,3.67
2018-07-08T21:30:38.422Z,2.97
2018-07-08T21:33:07.458Z,4.40
2018-07-08T21:35:36.487Z,6.07
2018-07-08T21:38:05.353Z,4.23
2018-07-08T21:40:34.238Z,5.17
2018-07-08T21:43:03.215Z,3.83
2018-07-08T21:45:32.162Z,3.17
2018-07-08T21:48:01.102Z,6.13
2018-07-08T21:50:30.075Z,3.83
2018-07-08T21:52:58.901Z,4.13
2018-07-08T21:55:27.834Z,3.57
2018-07-08T21:57:56.634Z,7.47
2018-07-08T22:00:29.541Z,4.57
2018-07-08T22:02:59.288Z,4.40
2018-07-08T22:05:29.143Z,3.27
2018-07-08T22:08:02.983Z,3.80
2018-07-08T22:10:32.521Z,3.60
2018-07-08T22:13:02.493Z,3.93
2018-07-08T22:15:31.366Z,4.43
2018-07-08T22:18:00.160Z,2.93
2018-07-08T22:20:29.150Z,3.40
2018-07-08T22:22:58.070Z,3.27
2018-07-08T22:25:27.414Z,1.77
2018-07-08T22:27:56.053Z,4.50
2018-07-08T22:30:24.838Z,2.57
2018-07-08T22:32:53.930Z,4.80
2018-07-08T22:35:22.917Z,4.97
2018-07-08T22:37:51.998Z,4.87
2018-07-08T22:40:20.854Z,2.90
2018-07-08T22:42:49.490Z,4.63
2018-07-08T22:45:18.227Z,6.33
2018-07-08T22:47:46.869Z,2.57
2018-07-08T22:50:15.834Z,3.43
2018-07-08T22:52:44.675Z,7.70
2018-07-08T22:55:13.506Z,1.70
2018-07-08T22:57:42.404Z,2.87
2018-07-08T23:00:22.574Z,1.60
2018-07-08T23:03:01.471Z,2.03
2018-07-08T23:05:30.316Z,3.80
2018-07-08T23:07:59.195Z,3.07
2018-07-08T23:10:28.097Z,2.80
2018-07-08T23:12:56.935Z,2.33
2018-07-08T23:15:25.758Z,3.07
2018-07-08T23:17:54.609Z,1.67
2018-07-08T23:20:23.453Z,4.37
2018-07-08T23:23:01.278Z,3.30
2018-07-08T23:25:30.139Z,1.90
2018-07-08T23:27:58.998Z,2.53
2018-07-08T23:30:28.062Z,2.37
2018-07-08T23:32:56.946Z,1.80
2018-07-08T23:35:25.796Z,2.40
2018-07-08T23:37:54.693Z,3.20
2018-07-08T23:40:23.522Z,1.50
2018-07-08T23:42:52.454Z,3.80
2018-07-08T23:45:21.391Z,3.70
2018-07-08T23:47:50.270Z,2.10
2018-07-08T23:50:19.168Z,2.63
2018-07-08T23:52:48.079Z,1.87
2018-07-08T23:55:17.018Z,2.57
2018-07-08T23:57:45.839Z,4.97
